<?xml version="1.0" encoding="UTF-8" standalone="no" ?><gpx xmlns="http://www.topografix.com/GPX/1/1" xmlns:gpxx="http://www.garmin.com/xmlschemas/GpxExtensions/v3" xmlns:wptx1="http://www.garmin.com/xmlschemas/WaypointExtension/v1" xmlns:gpxtpx="http://www.garmin.com/xmlschemas/TrackPointExtension/v1" creator="Dakota 20" version="1.1" xmlns:xsi="http://www.w3.org/2001/XMLSchema-instance" xsi:schemaLocation="http://www.topografix.com/GPX/1/1 http://www.topografix.com/GPX/1/1/gpx.xsd http://www.garmin.com/xmlschemas/GpxExtensions/v3 http://www8.garmin.com/xmlschemas/GpxExtensionsv3.xsd http://www.garmin.com/xmlschemas/WaypointExtension/v1 http://www8.garmin.com/xmlschemas/WaypointExtensionv1.xsd http://www.garmin.com/xmlschemas/TrackPointExtension/v1 http://www.garmin.com/xmlschemas/TrackPointExtensionv1.xsd"><metadata><link href="http://www.garmin.com"><text>Garmin International</text></link><time>2015-09-09T15:20:30Z</time></metadata><trk><name>Current Track: 09 SEP 2015 09:59</name><extensions><gpxx:TrackExtension><gpxx:DisplayColor>Cyan</gpxx:DisplayColor></gpxx:TrackExtension></extensions><trkseg><trkpt lat="51.7758879438" lon="-2.2454375960"><ele>240.95</ele><time>2015-09-09T08:59:14Z</time></trkpt><trkpt lat="51.7759010196" lon="-2.2454412002"><ele>241.43</ele><time>2015-09-09T08:59:32Z</time></trkpt><trkpt lat="51.7758897878" lon="-2.2454687767"><ele>242.39</ele><time>2015-09-09T08:59:53Z</time></trkpt><trkpt lat="51.7758544162" lon="-2.2455479018"><ele>241.91</ele><time>2015-09-09T09:00:01Z</time></trkpt><trkpt lat="51.7757660709" lon="-2.2456289548"><ele>241.91</ele><time>2015-09-09T09:00:15Z</time></trkpt><trkpt lat="51.7757619638" lon="-2.2457501572"><ele>241.43</ele><time>2015-09-09T09:00:36Z</time></trkpt><trkpt lat="51.7756983452" lon="-2.2458530869"><ele>240.95</ele><time>2015-09-09T09:00:49Z</time></trkpt><trkpt lat="51.7756388336" lon="-2.2460127622"><ele>240.47</ele><time>2015-09-09T09:01:00Z</time></trkpt><trkpt lat="51.7755325511" lon="-2.2462747805"><ele>239.51</ele><time>2015-09-09T09:01:16Z</time></trkpt><trkpt lat="51.7754177190" lon="-2.2465221304"><ele>239.02</ele><time>2015-09-09T09:01:31Z</time></trkpt><trkpt lat="51.7753248475" lon="-2.2467549797"><ele>239.02</ele><time>2015-09-09T09:01:48Z</time></trkpt><trkpt lat="51.7752561998" lon="-2.2469507810"><ele>239.02</ele><time>2015-09-09T09:02:02Z</time></trkpt><trkpt lat="51.7752495781" lon="-2.2470090352"><ele>239.02</ele><time>2015-09-09T09:02:06Z</time></trkpt><trkpt lat="51.7752284557" lon="-2.2470511962"><ele>238.54</ele><time>2015-09-09T09:02:09Z</time></trkpt><trkpt lat="51.7752033938" lon="-2.2471190896"><ele>238.06</ele><time>2015-09-09T09:02:13Z</time></trkpt><trkpt lat="51.7751275375" lon="-2.2473631706"><ele>237.10</ele><time>2015-09-09T09:02:27Z</time></trkpt><trkpt lat="51.7751002125" lon="-2.2474195808"><ele>236.62</ele><time>2015-09-09T09:02:31Z</time></trkpt><trkpt lat="51.7749946006" lon="-2.2477010451"><ele>236.14</ele><time>2015-09-09T09:02:50Z</time></trkpt><trkpt lat="51.7748642620" lon="-2.2480006143"><ele>234.22</ele><time>2015-09-09T09:03:07Z</time></trkpt><trkpt lat="51.7747830413" lon="-2.2482027020"><ele>233.74</ele><time>2015-09-09T09:03:20Z</time></trkpt><trkpt lat="51.7747033294" lon="-2.2484316118"><ele>232.78</ele><time>2015-09-09T09:03:34Z</time></trkpt><trkpt lat="51.7747029103" lon="-2.2484478727"><ele>232.78</ele><time>2015-09-09T09:03:35Z</time></trkpt><trkpt lat="51.7746513616" lon="-2.2485787980"><ele>231.81</ele><time>2015-09-09T09:03:44Z</time></trkpt><trkpt lat="51.7745822947" lon="-2.2487352882"><ele>230.85</ele><time>2015-09-09T09:03:58Z</time></trkpt><trkpt lat="51.7745707277" lon="-2.2487706598"><ele>231.81</ele><time>2015-09-09T09:04:06Z</time></trkpt><trkpt lat="51.7744823825" lon="-2.2490722407"><ele>230.37</ele><time>2015-09-09T09:04:20Z</time></trkpt><trkpt lat="51.7744808737" lon="-2.2491040919"><ele>230.37</ele><time>2015-09-09T09:04:22Z</time></trkpt><trkpt lat="51.7743926961" lon="-2.2493831255"><ele>229.41</ele><time>2015-09-09T09:04:37Z</time></trkpt><trkpt lat="51.7743274849" lon="-2.2495873924"><ele>228.93</ele><time>2015-09-09T09:04:49Z</time></trkpt><trkpt lat="51.7742864136" lon="-2.2497386020"><ele>228.93</ele><time>2015-09-09T09:04:59Z</time></trkpt><trkpt lat="51.7742242198" lon="-2.2499673441"><ele>227.97</ele><time>2015-09-09T09:05:13Z</time></trkpt><trkpt lat="51.7741759401" lon="-2.2501420230"><ele>226.53</ele><time>2015-09-09T09:05:24Z</time></trkpt><trkpt lat="51.7741130758" lon="-2.2503503133"><ele>228.93</ele><time>2015-09-09T09:05:38Z</time></trkpt><trkpt lat="51.7740579229" lon="-2.2504602838"><ele>227.49</ele><time>2015-09-09T09:05:47Z</time></trkpt><trkpt lat="51.7740715854" lon="-2.2504831664"><ele>228.45</ele><time>2015-09-09T09:06:00Z</time></trkpt><trkpt lat="51.7740744352" lon="-2.2504772991"><ele>228.45</ele><time>2015-09-09T09:06:23Z</time></trkpt><trkpt lat="51.7740750220" lon="-2.2504808195"><ele>228.45</ele><time>2015-09-09T09:06:47Z</time></trkpt><trkpt lat="51.7740751896" lon="-2.2504780535"><ele>228.45</ele><time>2015-09-09T09:07:12Z</time></trkpt><trkpt lat="51.7740824819" lon="-2.2504717670"><ele>227.97</ele><time>2015-09-09T09:07:34Z</time></trkpt><trkpt lat="51.7740792967" lon="-2.2504730243"><ele>227.97</ele><time>2015-09-09T09:07:57Z</time></trkpt><trkpt lat="51.7740992457" lon="-2.2504910454"><ele>227.97</ele><time>2015-09-09T09:08:15Z</time></trkpt><trkpt lat="51.7741146684" lon="-2.2504899558"><ele>227.97</ele><time>2015-09-09T09:08:37Z</time></trkpt><trkpt lat="51.7741518002" lon="-2.2504953202"><ele>227.97</ele><time>2015-09-09T09:08:48Z</time></trkpt><trkpt lat="51.7742939573" lon="-2.2505081445"><ele>227.49</ele><time>2015-09-09T09:09:02Z</time></trkpt><trkpt lat="51.7744426522" lon="-2.2504780535"><ele>226.53</ele><time>2015-09-09T09:09:17Z</time></trkpt><trkpt lat="51.7746079434" lon="-2.2504413407"><ele>226.05</ele><time>2015-09-09T09:09:32Z</time></trkpt><trkpt lat="51.7747848853" lon="-2.2503965814"><ele>225.57</ele><time>2015-09-09T09:09:50Z</time></trkpt><trkpt lat="51.7748181615" lon="-2.2503913008"><ele>226.05</ele><time>2015-09-09T09:09:54Z</time></trkpt><trkpt lat="51.7748500127" lon="-2.2503736988"><ele>226.53</ele><time>2015-09-09T09:09:57Z</time></trkpt><trkpt lat="51.7749909125" lon="-2.2503410932"><ele>226.53</ele><time>2015-09-09T09:10:11Z</time></trkpt><trkpt lat="51.7750842869" lon="-2.2503011115"><ele>226.05</ele><time>2015-09-09T09:10:21Z</time></trkpt><trkpt lat="51.7752722930" lon="-2.2502310388"><ele>226.05</ele><time>2015-09-09T09:10:39Z</time></trkpt><trkpt lat="51.7753868736" lon="-2.2501745448"><ele>227.01</ele><time>2015-09-09T09:10:51Z</time></trkpt><trkpt lat="51.7755090818" lon="-2.2500844393"><ele>225.57</ele><time>2015-09-09T09:11:05Z</time></trkpt><trkpt lat="51.7756218184" lon="-2.2500314657"><ele>225.57</ele><time>2015-09-09T09:11:18Z</time></trkpt><trkpt lat="51.7756321281" lon="-2.2500296216"><ele>225.57</ele><time>2015-09-09T09:11:19Z</time></trkpt><trkpt lat="51.7757626344" lon="-2.2499846108"><ele>226.05</ele><time>2015-09-09T09:11:33Z</time></trkpt><trkpt lat="51.7757795658" lon="-2.2499745525"><ele>226.53</ele><time>2015-09-09T09:11:35Z</time></trkpt><trkpt lat="51.7759201303" lon="-2.2498698626"><ele>226.53</ele><time>2015-09-09T09:11:49Z</time></trkpt><trkpt lat="51.7760585994" lon="-2.2497888934"><ele>227.97</ele><time>2015-09-09T09:12:03Z</time></trkpt><trkpt lat="51.7761951406" lon="-2.2497425415"><ele>228.45</ele><time>2015-09-09T09:12:17Z</time></trkpt><trkpt lat="51.7763369624" lon="-2.2497090977"><ele>228.93</ele><time>2015-09-09T09:12:32Z</time></trkpt><trkpt lat="51.7764099687" lon="-2.2496958543"><ele>228.93</ele><time>2015-09-09T09:12:40Z</time></trkpt><trkpt lat="51.7766109668" lon="-2.2496856283"><ele>229.41</ele><time>2015-09-09T09:12:59Z</time></trkpt><trkpt lat="51.7767779343" lon="-2.2496683616"><ele>229.89</ele><time>2015-09-09T09:13:17Z</time></trkpt><trkpt lat="51.7769910861" lon="-2.2496931721"><ele>230.37</ele><time>2015-09-09T09:13:37Z</time></trkpt><trkpt lat="51.7771292198" lon="-2.2497225925"><ele>230.37</ele><time>2015-09-09T09:13:52Z</time></trkpt><trkpt lat="51.7773132864" lon="-2.2497966047"><ele>230.85</ele><time>2015-09-09T09:14:11Z</time></trkpt><trkpt lat="51.7774468940" lon="-2.2499149572"><ele>229.41</ele><time>2015-09-09T09:14:28Z</time></trkpt><trkpt lat="51.7775509134" lon="-2.2501064837"><ele>227.01</ele><time>2015-09-09T09:14:45Z</time></trkpt><trkpt lat="51.7776284460" lon="-2.2502605431"><ele>226.05</ele><time>2015-09-09T09:15:01Z</time></trkpt><trkpt lat="51.7777063139" lon="-2.2502703499"><ele>225.09</ele><time>2015-09-09T09:15:09Z</time></trkpt><trkpt lat="51.7778421007" lon="-2.2503909655"><ele>223.16</ele><time>2015-09-09T09:15:27Z</time></trkpt><trkpt lat="51.7779006902" lon="-2.2506153490"><ele>220.28</ele><time>2015-09-09T09:15:45Z</time></trkpt><trkpt lat="51.7779746186" lon="-2.2508234717"><ele>218.36</ele><time>2015-09-09T09:16:00Z</time></trkpt><trkpt lat="51.7780418415" lon="-2.2509481944"><ele>216.43</ele><time>2015-09-09T09:16:15Z</time></trkpt><trkpt lat="51.7781608645" lon="-2.2510504536"><ele>214.03</ele><time>2015-09-09T09:16:29Z</time></trkpt><trkpt lat="51.7782114074" lon="-2.2512056027"><ele>212.11</ele><time>2015-09-09T09:16:46Z</time></trkpt><trkpt lat="51.7782518081" lon="-2.2513807844"><ele>209.22</ele><time>2015-09-09T09:17:00Z</time></trkpt><trkpt lat="51.7783197854" lon="-2.2515985463"><ele>206.82</ele><time>2015-09-09T09:17:17Z</time></trkpt><trkpt lat="51.7783618625" lon="-2.2516844608"><ele>205.38</ele><time>2015-09-09T09:17:33Z</time></trkpt><trkpt lat="51.7784254812" lon="-2.2518342454"><ele>203.94</ele><time>2015-09-09T09:17:49Z</time></trkpt><trkpt lat="51.7784428317" lon="-2.2520892229"><ele>202.49</ele><time>2015-09-09T09:18:06Z</time></trkpt><trkpt lat="51.7784685642" lon="-2.2523698490"><ele>201.05</ele><time>2015-09-09T09:18:23Z</time></trkpt><trkpt lat="51.7785329372" lon="-2.2526249941"><ele>200.09</ele><time>2015-09-09T09:18:40Z</time></trkpt><trkpt lat="51.7785279918" lon="-2.2526604496"><ele>199.13</ele><time>2015-09-09T09:18:43Z</time></trkpt><trkpt lat="51.7785082944" lon="-2.2527678218"><ele>199.13</ele><time>2015-09-09T09:19:03Z</time></trkpt><trkpt lat="51.7785464320" lon="-2.2528602742"><ele>198.65</ele><time>2015-09-09T09:19:27Z</time></trkpt><trkpt lat="51.7785760202" lon="-2.2530778684"><ele>198.17</ele><time>2015-09-09T09:19:40Z</time></trkpt><trkpt lat="51.7786003277" lon="-2.2532064468"><ele>198.65</ele><time>2015-09-09T09:19:49Z</time></trkpt><trkpt lat="51.7786315922" lon="-2.2532983962"><ele>198.17</ele><time>2015-09-09T09:19:56Z</time></trkpt><trkpt lat="51.7786744237" lon="-2.2534677107"><ele>198.17</ele><time>2015-09-09T09:20:10Z</time></trkpt><trkpt lat="51.7787076160" lon="-2.2537304834"><ele>197.69</ele><time>2015-09-09T09:20:27Z</time></trkpt><trkpt lat="51.7787377909" lon="-2.2539424617"><ele>196.73</ele><time>2015-09-09T09:20:40Z</time></trkpt><trkpt lat="51.7787420657" lon="-2.2540796734"><ele>196.25</ele><time>2015-09-09T09:20:48Z</time></trkpt><trkpt lat="51.7787622660" lon="-2.2543245088"><ele>196.25</ele><time>2015-09-09T09:21:03Z</time></trkpt><trkpt lat="51.7788239568" lon="-2.2544287797"><ele>197.21</ele><time>2015-09-09T09:21:16Z</time></trkpt><trkpt lat="51.7788276449" lon="-2.2544515785"><ele>196.73</ele><time>2015-09-09T09:21:18Z</time></trkpt><trkpt lat="51.7788383737" lon="-2.2544734553"><ele>198.17</ele><time>2015-09-09T09:21:20Z</time></trkpt><trkpt lat="51.7788962089" lon="-2.2546141036"><ele>197.21</ele><time>2015-09-09T09:21:34Z</time></trkpt><trkpt lat="51.7789232824" lon="-2.2547273431"><ele>198.17</ele><time>2015-09-09T09:21:41Z</time></trkpt><trkpt lat="51.7789568100" lon="-2.2549189534"><ele>198.65</ele><time>2015-09-09T09:21:54Z</time></trkpt><trkpt lat="51.7790181655" lon="-2.2550716717"><ele>200.57</ele><time>2015-09-09T09:22:08Z</time></trkpt><trkpt lat="51.7790666968" lon="-2.2552588396"><ele>200.57</ele><time>2015-09-09T09:22:22Z</time></trkpt><trkpt lat="51.7790973745" lon="-2.2553472687"><ele>203.46</ele><time>2015-09-09T09:22:34Z</time></trkpt><trkpt lat="51.7791012302" lon="-2.2553810477"><ele>204.90</ele><time>2015-09-09T09:22:50Z</time></trkpt><trkpt lat="51.7791769188" lon="-2.2553777788"><ele>207.30</ele><time>2015-09-09T09:23:01Z</time></trkpt><trkpt lat="51.7792210914" lon="-2.2553439997"><ele>208.74</ele><time>2015-09-09T09:23:21Z</time></trkpt><trkpt lat="51.7792564631" lon="-2.2552956361"><ele>212.59</ele><time>2015-09-09T09:23:37Z</time></trkpt><trkpt lat="51.7792989593" lon="-2.2554000746"><ele>212.11</ele><time>2015-09-09T09:23:52Z</time></trkpt><trkpt lat="51.7793185730" lon="-2.2555550560"><ele>212.59</ele><time>2015-09-09T09:24:05Z</time></trkpt><trkpt lat="51.7793290503" lon="-2.2555671260"><ele>212.59</ele><time>2015-09-09T09:24:12Z</time></trkpt><trkpt lat="51.7793384381" lon="-2.2556917649"><ele>213.55</ele><time>2015-09-09T09:24:25Z</time></trkpt><trkpt lat="51.7793337442" lon="-2.2557750810"><ele>213.55</ele><time>2015-09-09T09:24:40Z</time></trkpt><trkpt lat="51.7793214228" lon="-2.2559576388"><ele>212.59</ele><time>2015-09-09T09:24:53Z</time></trkpt><trkpt lat="51.7793147173" lon="-2.2561774123"><ele>212.59</ele><time>2015-09-09T09:25:09Z</time></trkpt><trkpt lat="51.7793309782" lon="-2.2563146241"><ele>211.63</ele><time>2015-09-09T09:25:19Z</time></trkpt><trkpt lat="51.7793553695" lon="-2.2564364132"><ele>211.15</ele><time>2015-09-09T09:25:27Z</time></trkpt><trkpt lat="51.7793969437" lon="-2.2566509899"><ele>211.63</ele><time>2015-09-09T09:25:40Z</time></trkpt><trkpt lat="51.7793992069" lon="-2.2566669155"><ele>212.11</ele><time>2015-09-09T09:25:41Z</time></trkpt><trkpt lat="51.7793780845" lon="-2.2567161173"><ele>212.59</ele><time>2015-09-09T09:25:45Z</time></trkpt><trkpt lat="51.7792428005" lon="-2.2569114994"><ele>214.03</ele><time>2015-09-09T09:26:03Z</time></trkpt><trkpt lat="51.7792308982" lon="-2.2569760401"><ele>214.51</ele><time>2015-09-09T09:26:07Z</time></trkpt><trkpt lat="51.7792473268" lon="-2.2571423370"><ele>213.55</ele><time>2015-09-09T09:26:21Z</time></trkpt><trkpt lat="51.7792702932" lon="-2.2571907006"><ele>212.59</ele><time>2015-09-09T09:26:27Z</time></trkpt><trkpt lat="51.7792969476" lon="-2.2572669759"><ele>212.11</ele><time>2015-09-09T09:26:40Z</time></trkpt><trkpt lat="51.7793039884" lon="-2.2572886012"><ele>212.11</ele><time>2015-09-09T09:26:46Z</time></trkpt><trkpt lat="51.7792993784" lon="-2.2573290020"><ele>212.11</ele><time>2015-09-09T09:26:49Z</time></trkpt><trkpt lat="51.7792381905" lon="-2.2576053534"><ele>210.19</ele><time>2015-09-09T09:27:05Z</time></trkpt><trkpt lat="51.7792068422" lon="-2.2578643542"><ele>210.67</ele><time>2015-09-09T09:27:20Z</time></trkpt><trkpt lat="51.7791868933" lon="-2.2580993827"><ele>210.67</ele><time>2015-09-09T09:27:33Z</time></trkpt><trkpt lat="51.7791802716" lon="-2.2583046556"><ele>211.15</ele><time>2015-09-09T09:27:45Z</time></trkpt><trkpt lat="51.7791718896" lon="-2.2583359201"><ele>211.15</ele><time>2015-09-09T09:27:47Z</time></trkpt><trkpt lat="51.7790948600" lon="-2.2585516702"><ele>211.63</ele><time>2015-09-09T09:28:03Z</time></trkpt><trkpt lat="51.7789516132" lon="-2.2587887943"><ele>211.15</ele><time>2015-09-09T09:28:23Z</time></trkpt><trkpt lat="51.7788307462" lon="-2.2589823324"><ele>211.63</ele><time>2015-09-09T09:28:40Z</time></trkpt><trkpt lat="51.7787543871" lon="-2.2591037024"><ele>212.59</ele><time>2015-09-09T09:28:52Z</time></trkpt><trkpt lat="51.7787242960" lon="-2.2591432650"><ele>213.55</ele><time>2015-09-09T09:29:08Z</time></trkpt><trkpt lat="51.7786653712" lon="-2.2592658084"><ele>213.55</ele><time>2015-09-09T09:29:22Z</time></trkpt><trkpt lat="51.7786130682" lon="-2.2593397368"><ele>214.51</ele><time>2015-09-09T09:29:38Z</time></trkpt><trkpt lat="51.7785703205" lon="-2.2594968975"><ele>214.51</ele><time>2015-09-09T09:29:51Z</time></trkpt><trkpt lat="51.7785694823" lon="-2.2595419921"><ele>214.51</ele><time>2015-09-09T09:29:54Z</time></trkpt><trkpt lat="51.7785712425" lon="-2.2595871706"><ele>214.51</ele><time>2015-09-09T09:29:57Z</time></trkpt><trkpt lat="51.7785720807" lon="-2.2596363723"><ele>214.51</ele><time>2015-09-09T09:30:00Z</time></trkpt><trkpt lat="51.7785631120" lon="-2.2596716601"><ele>214.51</ele><time>2015-09-09T09:30:02Z</time></trkpt><trkpt lat="51.7785495333" lon="-2.2597386315"><ele>214.03</ele><time>2015-09-09T09:30:06Z</time></trkpt><trkpt lat="51.7785177659" lon="-2.2599267215"><ele>213.55</ele><time>2015-09-09T09:30:19Z</time></trkpt><trkpt lat="51.7785101384" lon="-2.2599562258"><ele>213.55</ele><time>2015-09-09T09:30:22Z</time></trkpt><trkpt lat="51.7784934584" lon="-2.2600810323"><ele>213.55</ele><time>2015-09-09T09:30:31Z</time></trkpt><trkpt lat="51.7784549855" lon="-2.2602801025"><ele>214.51</ele><time>2015-09-09T09:30:44Z</time></trkpt><trkpt lat="51.7784294207" lon="-2.2604109440"><ele>214.03</ele><time>2015-09-09T09:30:55Z</time></trkpt><trkpt lat="51.7784246430" lon="-2.2605281230"><ele>215.95</ele><time>2015-09-09T09:31:02Z</time></trkpt><trkpt lat="51.7784024309" lon="-2.2606469784"><ele>214.99</ele><time>2015-09-09T09:31:17Z</time></trkpt><trkpt lat="51.7783817276" lon="-2.2607184760"><ele>213.07</ele><time>2015-09-09T09:31:33Z</time></trkpt><trkpt lat="51.7783782911" lon="-2.2607620619"><ele>212.59</ele><time>2015-09-09T09:31:37Z</time></trkpt><trkpt lat="51.7783482000" lon="-2.2609055601"><ele>213.55</ele><time>2015-09-09T09:31:51Z</time></trkpt><trkpt lat="51.7783071287" lon="-2.2611003555"><ele>214.99</ele><time>2015-09-09T09:32:06Z</time></trkpt><trkpt lat="51.7782930471" lon="-2.2612019442"><ele>215.47</ele><time>2015-09-09T09:32:21Z</time></trkpt><trkpt lat="51.7782492097" lon="-2.2613891959"><ele>214.03</ele><time>2015-09-09T09:32:36Z</time></trkpt><trkpt lat="51.7781941406" lon="-2.2615640424"><ele>214.51</ele><time>2015-09-09T09:32:48Z</time></trkpt><trkpt lat="51.7781299353" lon="-2.2617277410"><ele>215.47</ele><time>2015-09-09T09:33:00Z</time></trkpt><trkpt lat="51.7780440208" lon="-2.2619028389"><ele>215.95</ele><time>2015-09-09T09:33:15Z</time></trkpt><trkpt lat="51.7780412547" lon="-2.2619154956"><ele>216.91</ele><time>2015-09-09T09:33:32Z</time></trkpt><trkpt lat="51.7780386563" lon="-2.2619103827"><ele>216.91</ele><time>2015-09-09T09:33:47Z</time></trkpt><trkpt lat="51.7780367285" lon="-2.2619079519"><ele>216.43</ele><time>2015-09-09T09:34:24Z</time></trkpt><trkpt lat="51.7780347168" lon="-2.2619103827"><ele>217.40</ele><time>2015-09-09T09:34:53Z</time></trkpt><trkpt lat="51.7780343816" lon="-2.2619106341"><ele>217.88</ele><time>2015-09-09T09:35:19Z</time></trkpt><trkpt lat="51.7780322861" lon="-2.2619113885"><ele>217.88</ele><time>2015-09-09T09:35:48Z</time></trkpt><trkpt lat="51.7780337110" lon="-2.2619125620"><ele>217.88</ele><time>2015-09-09T09:36:14Z</time></trkpt><trkpt lat="51.7780364770" lon="-2.2619108856"><ele>216.91</ele><time>2015-09-09T09:36:48Z</time></trkpt><trkpt lat="51.7780351359" lon="-2.2619100474"><ele>216.91</ele><time>2015-09-09T09:37:21Z</time></trkpt><trkpt lat="51.7780342977" lon="-2.2619113047"><ele>217.40</ele><time>2015-09-09T09:37:54Z</time></trkpt><trkpt lat="51.7781225592" lon="-2.2618835606"><ele>214.51</ele><time>2015-09-09T09:38:11Z</time></trkpt><trkpt lat="51.7782129161" lon="-2.2618350293"><ele>215.95</ele><time>2015-09-09T09:38:23Z</time></trkpt><trkpt lat="51.7782516405" lon="-2.2617842350"><ele>219.32</ele><time>2015-09-09T09:38:33Z</time></trkpt><trkpt lat="51.7782653030" lon="-2.2617687285"><ele>217.88</ele><time>2015-09-09T09:38:52Z</time></trkpt><trkpt lat="51.7782710865" lon="-2.2617615201"><ele>218.36</ele><time>2015-09-09T09:39:14Z</time></trkpt><trkpt lat="51.7783337831" lon="-2.2616518009"><ele>217.88</ele><time>2015-09-09T09:39:27Z</time></trkpt><trkpt lat="51.7784259003" lon="-2.2615673114"><ele>216.91</ele><time>2015-09-09T09:39:37Z</time></trkpt><trkpt lat="51.7784488667" lon="-2.2615462728"><ele>217.40</ele><time>2015-09-09T09:39:40Z</time></trkpt><trkpt lat="51.7785737570" lon="-2.2614222206"><ele>215.95</ele><time>2015-09-09T09:39:54Z</time></trkpt><trkpt lat="51.7786153313" lon="-2.2613935545"><ele>215.47</ele><time>2015-09-09T09:39:59Z</time></trkpt><trkpt lat="51.7787371203" lon="-2.2613057960"><ele>214.03</ele><time>2015-09-09T09:40:13Z</time></trkpt><trkpt lat="51.7787905969" lon="-2.2612633836"><ele>213.55</ele><time>2015-09-09T09:40:20Z</time></trkpt><trkpt lat="51.7789208516" lon="-2.2611217294"><ele>212.11</ele><time>2015-09-09T09:40:36Z</time></trkpt><trkpt lat="51.7790289782" lon="-2.2609835956"><ele>213.07</ele><time>2015-09-09T09:40:50Z</time></trkpt><trkpt lat="51.7790644336" lon="-2.2608944960"><ele>212.59</ele><time>2015-09-09T09:40:57Z</time></trkpt><trkpt lat="51.7790822033" lon="-2.2608705238"><ele>211.63</ele><time>2015-09-09T09:40:59Z</time></trkpt><trkpt lat="51.7791400384" lon="-2.2607558593"><ele>211.63</ele><time>2015-09-09T09:41:08Z</time></trkpt><trkpt lat="51.7792179901" lon="-2.2605959326"><ele>211.15</ele><time>2015-09-09T09:41:21Z</time></trkpt><trkpt lat="51.7792361788" lon="-2.2605781630"><ele>211.15</ele><time>2015-09-09T09:41:23Z</time></trkpt><trkpt lat="51.7792641744" lon="-2.2605182324"><ele>210.19</ele><time>2015-09-09T09:41:29Z</time></trkpt><trkpt lat="51.7793044075" lon="-2.2604470700"><ele>210.19</ele><time>2015-09-09T09:41:35Z</time></trkpt><trkpt lat="51.7794273701" lon="-2.2603029851"><ele>209.22</ele><time>2015-09-09T09:41:50Z</time></trkpt><trkpt lat="51.7795031425" lon="-2.2602398694"><ele>209.22</ele><time>2015-09-09T09:42:01Z</time></trkpt><trkpt lat="51.7795291264" lon="-2.2602200881"><ele>207.78</ele><time>2015-09-09T09:42:19Z</time></trkpt><trkpt lat="51.7795959301" lon="-2.2601177450"><ele>208.74</ele><time>2015-09-09T09:42:36Z</time></trkpt><trkpt lat="51.7796675954" lon="-2.2600045055"><ele>206.82</ele><time>2015-09-09T09:42:49Z</time></trkpt><trkpt lat="51.7797522526" lon="-2.2598369513"><ele>204.90</ele><time>2015-09-09T09:43:04Z</time></trkpt><trkpt lat="51.7797556054" lon="-2.2598296590"><ele>205.38</ele><time>2015-09-09T09:43:05Z</time></trkpt><trkpt lat="51.7798442021" lon="-2.2596772760"><ele>204.42</ele><time>2015-09-09T09:43:19Z</time></trkpt><trkpt lat="51.7799048871" lon="-2.2595418245"><ele>203.46</ele><time>2015-09-09T09:43:31Z</time></trkpt><trkpt lat="51.7799526639" lon="-2.2594706621"><ele>202.01</ele><time>2015-09-09T09:43:44Z</time></trkpt><trkpt lat="51.7800808232" lon="-2.2592834104"><ele>199.61</ele><time>2015-09-09T09:44:03Z</time></trkpt><trkpt lat="51.7801803164" lon="-2.2591456119"><ele>197.21</ele><time>2015-09-09T09:44:19Z</time></trkpt><trkpt lat="51.7802139279" lon="-2.2591187898"><ele>196.25</ele><time>2015-09-09T09:44:23Z</time></trkpt><trkpt lat="51.7803063802" lon="-2.2590845078"><ele>195.77</ele><time>2015-09-09T09:44:36Z</time></trkpt><trkpt lat="51.7804446816" lon="-2.2590503935"><ele>194.32</ele><time>2015-09-09T09:44:52Z</time></trkpt><trkpt lat="51.7805239744" lon="-2.2589964140"><ele>195.28</ele><time>2015-09-09T09:45:09Z</time></trkpt><trkpt lat="51.7805392295" lon="-2.2589447815"><ele>194.80</ele><time>2015-09-09T09:45:25Z</time></trkpt><trkpt lat="51.7805324402" lon="-2.2589407582"><ele>194.80</ele><time>2015-09-09T09:45:42Z</time></trkpt><trkpt lat="51.7805200350" lon="-2.2589452844"><ele>193.84</ele><time>2015-09-09T09:45:54Z</time></trkpt><trkpt lat="51.7805651296" lon="-2.2588615492"><ele>193.84</ele><time>2015-09-09T09:46:11Z</time></trkpt><trkpt lat="51.7806458473" lon="-2.2586918157"><ele>190.96</ele><time>2015-09-09T09:46:26Z</time></trkpt><trkpt lat="51.7806948815" lon="-2.2585306317"><ele>188.56</ele><time>2015-09-09T09:46:41Z</time></trkpt><trkpt lat="51.7807337735" lon="-2.2583919112"><ele>186.15</ele><time>2015-09-09T09:46:55Z</time></trkpt><trkpt lat="51.7808025889" lon="-2.2581798490"><ele>182.79</ele><time>2015-09-09T09:47:11Z</time></trkpt><trkpt lat="51.7808155809" lon="-2.2581190802"><ele>181.83</ele><time>2015-09-09T09:47:21Z</time></trkpt><trkpt lat="51.7808408942" lon="-2.2580327466"><ele>181.35</ele><time>2015-09-09T09:47:37Z</time></trkpt><trkpt lat="51.7808684707" lon="-2.2579195071"><ele>179.90</ele><time>2015-09-09T09:47:48Z</time></trkpt><trkpt lat="51.7809226178" lon="-2.2577632684"><ele>178.94</ele><time>2015-09-09T09:48:03Z</time></trkpt><trkpt lat="51.7809713166" lon="-2.2577039246"><ele>177.98</ele><time>2015-09-09T09:48:16Z</time></trkpt><trkpt lat="51.7809769325" lon="-2.2576890048"><ele>177.98</ele><time>2015-09-09T09:48:30Z</time></trkpt><trkpt lat="51.7809864040" lon="-2.2576926090"><ele>177.02</ele><time>2015-09-09T09:48:48Z</time></trkpt><trkpt lat="51.7811439000" lon="-2.2577665374"><ele>174.62</ele><time>2015-09-09T09:49:05Z</time></trkpt><trkpt lat="51.7812464945" lon="-2.2578579001"><ele>172.21</ele><time>2015-09-09T09:49:18Z</time></trkpt><trkpt lat="51.7813127954" lon="-2.2578438185"><ele>170.77</ele><time>2015-09-09T09:49:32Z</time></trkpt><trkpt lat="51.7813058384" lon="-2.2577493545"><ele>170.77</ele><time>2015-09-09T09:49:47Z</time></trkpt><trkpt lat="51.7812950257" lon="-2.2576916870"><ele>170.29</ele><time>2015-09-09T09:50:05Z</time></trkpt><trkpt lat="51.7812808603" lon="-2.2576542199"><ele>171.25</ele><time>2015-09-09T09:50:25Z</time></trkpt><trkpt lat="51.7813092750" lon="-2.2576005757"><ele>170.29</ele><time>2015-09-09T09:50:45Z</time></trkpt><trkpt lat="51.7813106999" lon="-2.2575590853"><ele>170.77</ele><time>2015-09-09T09:51:01Z</time></trkpt><trkpt lat="51.7813126277" lon="-2.2575161699"><ele>170.77</ele><time>2015-09-09T09:51:20Z</time></trkpt><trkpt lat="51.7813039105" lon="-2.2574615199"><ele>171.73</ele><time>2015-09-09T09:51:23Z</time></trkpt><trkpt lat="51.7813119572" lon="-2.2573042754"><ele>171.25</ele><time>2015-09-09T09:51:38Z</time></trkpt><trkpt lat="51.7813205067" lon="-2.2571744397"><ele>172.21</ele><time>2015-09-09T09:51:53Z</time></trkpt><trkpt lat="51.7813029047" lon="-2.2568798158"><ele>172.69</ele><time>2015-09-09T09:52:13Z</time></trkpt><trkpt lat="51.7812640127" lon="-2.2566010337"><ele>173.17</ele><time>2015-09-09T09:52:34Z</time></trkpt><trkpt lat="51.7812418845" lon="-2.2563077509"><ele>173.66</ele><time>2015-09-09T09:52:52Z</time></trkpt><trkpt lat="51.7812209297" lon="-2.2560778353"><ele>175.10</ele><time>2015-09-09T09:53:12Z</time></trkpt><trkpt lat="51.7811940238" lon="-2.2556938604"><ele>176.54</ele><time>2015-09-09T09:53:32Z</time></trkpt><trkpt lat="51.7812008131" lon="-2.2554152459"><ele>177.50</ele><time>2015-09-09T09:53:52Z</time></trkpt><trkpt lat="51.7812560499" lon="-2.2550719231"><ele>179.90</ele><time>2015-09-09T09:54:12Z</time></trkpt><trkpt lat="51.7812450696" lon="-2.2548691649"><ele>181.35</ele><time>2015-09-09T09:54:27Z</time></trkpt><trkpt lat="51.7812635936" lon="-2.2546220664"><ele>182.79</ele><time>2015-09-09T09:54:43Z</time></trkpt><trkpt lat="51.7812583130" lon="-2.2543984372"><ele>182.79</ele><time>2015-09-09T09:54:59Z</time></trkpt><trkpt lat="51.7812438123" lon="-2.2541422863"><ele>185.19</ele><time>2015-09-09T09:55:16Z</time></trkpt><trkpt lat="51.7812659405" lon="-2.2539537773"><ele>185.67</ele><time>2015-09-09T09:55:31Z</time></trkpt><trkpt lat="51.7812595703" lon="-2.2536893282"><ele>187.59</ele><time>2015-09-09T09:55:47Z</time></trkpt><trkpt lat="51.7812580615" lon="-2.2534786072"><ele>187.59</ele><time>2015-09-09T09:56:02Z</time></trkpt><trkpt lat="51.7812859733" lon="-2.2532199416"><ele>189.04</ele><time>2015-09-09T09:56:19Z</time></trkpt><trkpt lat="51.7813175730" lon="-2.2530064546"><ele>189.04</ele><time>2015-09-09T09:56:33Z</time></trkpt><trkpt lat="51.7813222669" lon="-2.2529933788"><ele>189.04</ele><time>2015-09-09T09:56:34Z</time></trkpt><trkpt lat="51.7813596502" lon="-2.2527361382"><ele>189.52</ele><time>2015-09-09T09:56:53Z</time></trkpt><trkpt lat="51.7813777551" lon="-2.2524444479"><ele>190.48</ele><time>2015-09-09T09:57:09Z</time></trkpt><trkpt lat="51.7814427149" lon="-2.2522180527"><ele>191.92</ele><time>2015-09-09T09:57:26Z</time></trkpt><trkpt lat="51.7814235203" lon="-2.2520163003"><ele>192.88</ele><time>2015-09-09T09:57:43Z</time></trkpt><trkpt lat="51.7814526893" lon="-2.2517229337"><ele>192.88</ele><time>2015-09-09T09:58:01Z</time></trkpt><trkpt lat="51.7814965267" lon="-2.2514550481"><ele>193.84</ele><time>2015-09-09T09:58:18Z</time></trkpt><trkpt lat="51.7815469019" lon="-2.2511730809"><ele>194.80</ele><time>2015-09-09T09:58:35Z</time></trkpt><trkpt lat="51.7815396097" lon="-2.2511120606"><ele>195.77</ele><time>2015-09-09T09:58:52Z</time></trkpt><trkpt lat="51.7815374304" lon="-2.2510403115"><ele>195.77</ele><time>2015-09-09T09:59:01Z</time></trkpt><trkpt lat="51.7815430462" lon="-2.2510018386"><ele>196.73</ele><time>2015-09-09T09:59:03Z</time></trkpt><trkpt lat="51.7815874703" lon="-2.2507539857"><ele>197.21</ele><time>2015-09-09T09:59:18Z</time></trkpt><trkpt lat="51.7816308886" lon="-2.2505678236"><ele>197.69</ele><time>2015-09-09T09:59:32Z</time></trkpt><trkpt lat="51.7817003746" lon="-2.2503705975"><ele>198.17</ele><time>2015-09-09T09:59:49Z</time></trkpt><trkpt lat="51.7818998639" lon="-2.2501037177"><ele>198.17</ele><time>2015-09-09T10:00:07Z</time></trkpt><trkpt lat="51.7820333876" lon="-2.2499068268"><ele>199.61</ele><time>2015-09-09T10:00:23Z</time></trkpt><trkpt lat="51.7821614631" lon="-2.2497372609"><ele>200.57</ele><time>2015-09-09T10:00:41Z</time></trkpt><trkpt lat="51.7822944000" lon="-2.2495447285"><ele>202.98</ele><time>2015-09-09T10:00:58Z</time></trkpt><trkpt lat="51.7823612038" lon="-2.2494231910"><ele>203.46</ele><time>2015-09-09T10:01:17Z</time></trkpt><trkpt lat="51.7824041191" lon="-2.2493002284"><ele>204.42</ele><time>2015-09-09T10:01:35Z</time></trkpt><trkpt lat="51.7824927997" lon="-2.2491074447"><ele>204.90</ele><time>2015-09-09T10:01:55Z</time></trkpt><trkpt lat="51.7827707436" lon="-2.2489310894"><ele>206.82</ele><time>2015-09-09T10:02:12Z</time></trkpt><trkpt lat="51.7829213664" lon="-2.2487854958"><ele>207.30</ele><time>2015-09-09T10:02:29Z</time></trkpt><trkpt lat="51.7830206919" lon="-2.2486424167"><ele>207.78</ele><time>2015-09-09T10:02:52Z</time></trkpt><trkpt lat="51.7832570616" lon="-2.2485240642"><ele>208.74</ele><time>2015-09-09T10:03:07Z</time></trkpt><trkpt lat="51.7834222689" lon="-2.2483493853"><ele>210.19</ele><time>2015-09-09T10:03:28Z</time></trkpt><trkpt lat="51.7834388651" lon="-2.2483078949"><ele>209.70</ele><time>2015-09-09T10:03:44Z</time></trkpt><trkpt lat="51.7834355123" lon="-2.2482964955"><ele>209.70</ele><time>2015-09-09T10:04:08Z</time></trkpt><trkpt lat="51.7834174912" lon="-2.2482818272"><ele>210.19</ele><time>2015-09-09T10:04:34Z</time></trkpt><trkpt lat="51.7834167369" lon="-2.2482848447"><ele>206.34</ele><time>2015-09-09T10:04:48Z</time></trkpt><trkpt lat="51.7834167369" lon="-2.2482848447"><ele>209.70</ele><time>2015-09-09T10:04:49Z</time></trkpt><trkpt lat="51.7833837122" lon="-2.2482773848"><ele>209.70</ele><time>2015-09-09T10:04:55Z</time></trkpt><trkpt lat="51.7833481729" lon="-2.2482154425"><ele>209.22</ele><time>2015-09-09T10:05:13Z</time></trkpt><trkpt lat="51.7834127136" lon="-2.2481726948"><ele>209.70</ele><time>2015-09-09T10:05:36Z</time></trkpt><trkpt lat="51.7834065109" lon="-2.2482218966"><ele>209.22</ele><time>2015-09-09T10:05:54Z</time></trkpt><trkpt lat="51.7834018171" lon="-2.2481571045"><ele>209.22</ele><time>2015-09-09T10:06:16Z</time></trkpt><trkpt lat="51.7834523600" lon="-2.2481385805"><ele>209.22</ele><time>2015-09-09T10:06:37Z</time></trkpt><trkpt lat="51.7834153958" lon="-2.2481545899"><ele>209.70</ele><time>2015-09-09T10:07:01Z</time></trkpt><trkpt lat="51.7834215984" lon="-2.2482337989"><ele>209.22</ele><time>2015-09-09T10:07:19Z</time></trkpt><trkpt lat="51.7833450716" lon="-2.2480996884"><ele>209.22</ele><time>2015-09-09T10:07:35Z</time></trkpt><trkpt lat="51.7833937705" lon="-2.2481618822"><ele>209.22</ele><time>2015-09-09T10:08:00Z</time></trkpt><trkpt lat="51.7834144738" lon="-2.2481956612"><ele>209.22</ele><time>2015-09-09T10:08:28Z</time></trkpt><trkpt lat="51.7833815329" lon="-2.2482168674"><ele>209.22</ele><time>2015-09-09T10:08:41Z</time></trkpt><trkpt lat="51.7834029067" lon="-2.2481529973"><ele>209.22</ele><time>2015-09-09T10:09:05Z</time></trkpt><trkpt lat="51.7834076844" lon="-2.2481655702"><ele>209.70</ele><time>2015-09-09T10:09:17Z</time></trkpt><trkpt lat="51.7834321596" lon="-2.2481885366"><ele>209.70</ele><time>2015-09-09T10:09:19Z</time></trkpt><trkpt lat="51.7835846264" lon="-2.2484441847"><ele>209.22</ele><time>2015-09-09T10:09:45Z</time></trkpt><trkpt lat="51.7835015617" lon="-2.2483999282"><ele>209.70</ele><time>2015-09-09T10:10:05Z</time></trkpt><trkpt lat="51.7834480852" lon="-2.2482549213"><ele>209.70</ele><time>2015-09-09T10:10:31Z</time></trkpt><trkpt lat="51.7834842950" lon="-2.2482719366"><ele>210.19</ele><time>2015-09-09T10:10:54Z</time></trkpt><trkpt lat="51.7834630888" lon="-2.2482286859"><ele>210.67</ele><time>2015-09-09T10:11:17Z</time></trkpt><trkpt lat="51.7834464088" lon="-2.2482801508"><ele>209.70</ele><time>2015-09-09T10:11:41Z</time></trkpt><trkpt lat="51.7834423855" lon="-2.2482204717"><ele>210.19</ele><time>2015-09-09T10:12:02Z</time></trkpt><trkpt lat="51.7834597360" lon="-2.2481871117"><ele>210.19</ele><time>2015-09-09T10:12:24Z</time></trkpt><trkpt lat="51.7835078482" lon="-2.2481869441"><ele>210.19</ele><time>2015-09-09T10:12:46Z</time></trkpt><trkpt lat="51.7835272104" lon="-2.2482196335"><ele>210.19</ele><time>2015-09-09T10:13:07Z</time></trkpt><trkpt lat="51.7835360114" lon="-2.2482550051"><ele>210.19</ele><time>2015-09-09T10:13:31Z</time></trkpt><trkpt lat="51.7835454829" lon="-2.2482378222"><ele>210.19</ele><time>2015-09-09T10:13:52Z</time></trkpt><trkpt lat="51.7835006397" lon="-2.2481566016"><ele>210.19</ele><time>2015-09-09T10:14:11Z</time></trkpt><trkpt lat="51.7834951915" lon="-2.2481578588"><ele>211.15</ele><time>2015-09-09T10:14:30Z</time></trkpt><trkpt lat="51.7834710516" lon="-2.2481714375"><ele>210.19</ele><time>2015-09-09T10:14:50Z</time></trkpt><trkpt lat="51.7834722251" lon="-2.2481843457"><ele>210.67</ele><time>2015-09-09T10:15:01Z</time></trkpt><trkpt lat="51.7834904138" lon="-2.2481671628"><ele>210.19</ele><time>2015-09-09T10:15:03Z</time></trkpt></trkseg><trkseg><trkpt lat="51.7834630888" lon="-2.2482265905"><ele>210.67</ele><time>2015-09-09T10:17:06Z</time></trkpt><trkpt lat="51.7834502645" lon="-2.2482320387"><ele>211.15</ele><time>2015-09-09T10:17:23Z</time></trkpt><trkpt lat="51.7834152281" lon="-2.2482428513"><ele>211.15</ele><time>2015-09-09T10:17:41Z</time></trkpt><trkpt lat="51.7834410444" lon="-2.2482194658"><ele>207.30</ele><time>2015-09-09T10:18:02Z</time></trkpt><trkpt lat="51.7834438942" lon="-2.2482159454"><ele>213.55</ele><time>2015-09-09T10:18:03Z</time></trkpt><trkpt lat="51.7834910844" lon="-2.2482136823"><ele>210.67</ele><time>2015-09-09T10:18:22Z</time></trkpt><trkpt lat="51.7834934313" lon="-2.2482372355"><ele>211.15</ele><time>2015-09-09T10:18:52Z</time></trkpt><trkpt lat="51.7834767513" lon="-2.2482192144"><ele>210.67</ele><time>2015-09-09T10:19:17Z</time></trkpt><trkpt lat="51.7835013941" lon="-2.2481236607"><ele>210.67</ele><time>2015-09-09T10:19:36Z</time></trkpt><trkpt lat="51.7835446447" lon="-2.2478202358"><ele>209.70</ele><time>2015-09-09T10:19:56Z</time></trkpt><trkpt lat="51.7834942695" lon="-2.2475660965"><ele>209.22</ele><time>2015-09-09T10:20:15Z</time></trkpt><trkpt lat="51.7834913358" lon="-2.2473314870"><ele>209.22</ele><time>2015-09-09T10:20:31Z</time></trkpt><trkpt lat="51.7834812775" lon="-2.2470288165"><ele>208.26</ele><time>2015-09-09T10:20:51Z</time></trkpt><trkpt lat="51.7834941857" lon="-2.2467479389"><ele>207.78</ele><time>2015-09-09T10:21:09Z</time></trkpt><trkpt lat="51.7834866419" lon="-2.2464883514"><ele>206.34</ele><time>2015-09-09T10:21:26Z</time></trkpt><trkpt lat="51.7834730633" lon="-2.2462191246"><ele>204.42</ele><time>2015-09-09T10:21:47Z</time></trkpt><trkpt lat="51.7834622506" lon="-2.2459393367"><ele>203.94</ele><time>2015-09-09T10:22:03Z</time></trkpt><trkpt lat="51.7834773380" lon="-2.2457182221"><ele>202.01</ele><time>2015-09-09T10:22:20Z</time></trkpt><trkpt lat="51.7835314013" lon="-2.2454518452"><ele>200.09</ele><time>2015-09-09T10:22:36Z</time></trkpt><trkpt lat="51.7835517693" lon="-2.2452765796"><ele>197.69</ele><time>2015-09-09T10:22:51Z</time></trkpt><trkpt lat="51.7835464887" lon="-2.2450301517"><ele>195.77</ele><time>2015-09-09T10:23:08Z</time></trkpt><trkpt lat="51.7835214268" lon="-2.2448149882"><ele>193.84</ele><time>2015-09-09T10:23:22Z</time></trkpt><trkpt lat="51.7835080158" lon="-2.2446504515"><ele>191.92</ele><time>2015-09-09T10:23:37Z</time></trkpt><trkpt lat="51.7834599037" lon="-2.2444834840"><ele>189.04</ele><time>2015-09-09T10:23:54Z</time></trkpt><trkpt lat="51.7834434751" lon="-2.2444909438"><ele>188.56</ele><time>2015-09-09T10:24:19Z</time></trkpt></trkseg><trkseg><trkpt lat="51.7832808662" lon="-2.2443954740"><ele>188.56</ele><time>2015-09-09T10:26:26Z</time></trkpt><trkpt lat="51.7832620908" lon="-2.2443881817"><ele>189.04</ele><time>2015-09-09T10:26:28Z</time></trkpt><trkpt lat="51.7833232787" lon="-2.2442969866"><ele>187.59</ele><time>2015-09-09T10:26:49Z</time></trkpt><trkpt lat="51.7833352648" lon="-2.2441891953"><ele>186.63</ele><time>2015-09-09T10:27:07Z</time></trkpt><trkpt lat="51.7831049301" lon="-2.2441557515"><ele>187.11</ele><time>2015-09-09T10:27:28Z</time></trkpt><trkpt lat="51.7828949634" lon="-2.2440881096"><ele>187.11</ele><time>2015-09-09T10:27:48Z</time></trkpt><trkpt lat="51.7827418260" lon="-2.2440383211"><ele>187.11</ele><time>2015-09-09T10:28:09Z</time></trkpt><trkpt lat="51.7825584300" lon="-2.2439988423"><ele>188.08</ele><time>2015-09-09T10:28:27Z</time></trkpt><trkpt lat="51.7823575996" lon="-2.2439164482"><ele>189.52</ele><time>2015-09-09T10:28:47Z</time></trkpt><trkpt lat="51.7821966670" lon="-2.2438589483"><ele>190.96</ele><time>2015-09-09T10:29:04Z</time></trkpt><trkpt lat="51.7820162047" lon="-2.2438146081"><ele>191.92</ele><time>2015-09-09T10:29:22Z</time></trkpt><trkpt lat="51.7818798311" lon="-2.2437575273"><ele>195.28</ele><time>2015-09-09T10:29:38Z</time></trkpt><trkpt lat="51.7817209940" lon="-2.2436546814"><ele>195.77</ele><time>2015-09-09T10:29:54Z</time></trkpt><trkpt lat="51.7816309724" lon="-2.2435715329"><ele>197.69</ele><time>2015-09-09T10:30:11Z</time></trkpt><trkpt lat="51.7815162241" lon="-2.2434493247"><ele>199.61</ele><time>2015-09-09T10:30:29Z</time></trkpt><trkpt lat="51.7814677767" lon="-2.2433940042"><ele>202.49</ele><time>2015-09-09T10:30:39Z</time></trkpt><trkpt lat="51.7814431340" lon="-2.2433740553"><ele>201.05</ele><time>2015-09-09T10:30:43Z</time></trkpt><trkpt lat="51.7814168148" lon="-2.2433391865"><ele>202.49</ele><time>2015-09-09T10:30:45Z</time></trkpt><trkpt lat="51.7812412977" lon="-2.2432633303"><ele>204.42</ele><time>2015-09-09T10:31:04Z</time></trkpt><trkpt lat="51.7811488453" lon="-2.2432490811"><ele>205.86</ele><time>2015-09-09T10:31:20Z</time></trkpt><trkpt lat="51.7810521182" lon="-2.2432070039"><ele>208.26</ele><time>2015-09-09T10:31:39Z</time></trkpt><trkpt lat="51.7809122242" lon="-2.2431594785"><ele>209.22</ele><time>2015-09-09T10:31:55Z</time></trkpt><trkpt lat="51.7808706500" lon="-2.2431187425"><ele>211.15</ele><time>2015-09-09T10:32:13Z</time></trkpt><trkpt lat="51.7807092983" lon="-2.2430219315"><ele>211.63</ele><time>2015-09-09T10:32:31Z</time></trkpt><trkpt lat="51.7805590946" lon="-2.2429730650"><ele>212.11</ele><time>2015-09-09T10:32:54Z</time></trkpt><trkpt lat="51.7805660516" lon="-2.2431312315"><ele>212.59</ele><time>2015-09-09T10:33:14Z</time></trkpt><trkpt lat="51.7805791274" lon="-2.2431097738"><ele>212.59</ele><time>2015-09-09T10:33:35Z</time></trkpt><trkpt lat="51.7805258185" lon="-2.2430469934"><ele>212.11</ele><time>2015-09-09T10:33:58Z</time></trkpt><trkpt lat="51.7805155925" lon="-2.2429216839"><ele>211.15</ele><time>2015-09-09T10:34:17Z</time></trkpt><trkpt lat="51.7803850863" lon="-2.2428048402"><ele>209.70</ele><time>2015-09-09T10:34:34Z</time></trkpt><trkpt lat="51.7803558335" lon="-2.2428043373"><ele>207.78</ele><time>2015-09-09T10:34:55Z</time></trkpt><trkpt lat="51.7801328748" lon="-2.2427035030"><ele>206.34</ele><time>2015-09-09T10:35:12Z</time></trkpt><trkpt lat="51.7800304480" lon="-2.2426508646"><ele>205.38</ele><time>2015-09-09T10:35:31Z</time></trkpt><trkpt lat="51.7798830103" lon="-2.2424879204"><ele>204.90</ele><time>2015-09-09T10:35:50Z</time></trkpt><trkpt lat="51.7797331419" lon="-2.2424066160"><ele>205.38</ele><time>2015-09-09T10:36:12Z</time></trkpt><trkpt lat="51.7796593811" lon="-2.2423629463"><ele>207.30</ele><time>2015-09-09T10:36:31Z</time></trkpt><trkpt lat="51.7794484925" lon="-2.2421890218"><ele>208.26</ele><time>2015-09-09T10:36:51Z</time></trkpt><trkpt lat="51.7793412041" lon="-2.2420790512"><ele>207.30</ele><time>2015-09-09T10:37:11Z</time></trkpt><trkpt lat="51.7791625019" lon="-2.2418587748"><ele>205.86</ele><time>2015-09-09T10:37:28Z</time></trkpt><trkpt lat="51.7789716460" lon="-2.2416906338"><ele>205.38</ele><time>2015-09-09T10:37:47Z</time></trkpt><trkpt lat="51.7789063510" lon="-2.2415573616"><ele>205.38</ele><time>2015-09-09T10:38:01Z</time></trkpt><trkpt lat="51.7787676305" lon="-2.2414004523"><ele>205.86</ele><time>2015-09-09T10:38:20Z</time></trkpt><trkpt lat="51.7786773574" lon="-2.2413034737"><ele>206.82</ele><time>2015-09-09T10:38:37Z</time></trkpt><trkpt lat="51.7785494495" lon="-2.2411535215"><ele>205.86</ele><time>2015-09-09T10:38:55Z</time></trkpt><trkpt lat="51.7783839069" lon="-2.2408801038"><ele>205.86</ele><time>2015-09-09T10:39:15Z</time></trkpt><trkpt lat="51.7782321107" lon="-2.2406863142"><ele>208.26</ele><time>2015-09-09T10:39:33Z</time></trkpt><trkpt lat="51.7781142611" lon="-2.2406072728"><ele>209.70</ele><time>2015-09-09T10:39:50Z</time></trkpt><trkpt lat="51.7779104970" lon="-2.2403773572"><ele>209.70</ele><time>2015-09-09T10:40:10Z</time></trkpt><trkpt lat="51.7777859420" lon="-2.2402008343"><ele>209.22</ele><time>2015-09-09T10:40:31Z</time></trkpt><trkpt lat="51.7776509095" lon="-2.2398824897"><ele>209.70</ele><time>2015-09-09T10:40:52Z</time></trkpt><trkpt lat="51.7776464671" lon="-2.2396899574"><ele>209.70</ele><time>2015-09-09T10:41:07Z</time></trkpt><trkpt lat="51.7775865365" lon="-2.2393841855"><ele>209.22</ele><time>2015-09-09T10:41:25Z</time></trkpt><trkpt lat="51.7775147874" lon="-2.2391081695"><ele>207.30</ele><time>2015-09-09T10:41:45Z</time></trkpt><trkpt lat="51.7775116023" lon="-2.2388434689"><ele>206.34</ele><time>2015-09-09T10:42:04Z</time></trkpt><trkpt lat="51.7774259392" lon="-2.2385216039"><ele>206.34</ele><time>2015-09-09T10:42:21Z</time></trkpt><trkpt lat="51.7773677688" lon="-2.2382979747"><ele>207.78</ele><time>2015-09-09T10:42:43Z</time></trkpt><trkpt lat="51.7772174813" lon="-2.2379670572"><ele>208.26</ele><time>2015-09-09T10:43:04Z</time></trkpt><trkpt lat="51.7772768252" lon="-2.2378399037"><ele>207.78</ele><time>2015-09-09T10:43:24Z</time></trkpt><trkpt lat="51.7772397771" lon="-2.2376527358"><ele>205.86</ele><time>2015-09-09T10:43:41Z</time></trkpt><trkpt lat="51.7772765737" lon="-2.2374363989"><ele>203.94</ele><time>2015-09-09T10:44:01Z</time></trkpt><trkpt lat="51.7772818543" lon="-2.2370311338"><ele>203.46</ele><time>2015-09-09T10:44:20Z</time></trkpt><trkpt lat="51.7772568762" lon="-2.2368282080"><ele>204.42</ele><time>2015-09-09T10:44:36Z</time></trkpt><trkpt lat="51.7772631627" lon="-2.2366268747"><ele>203.94</ele><time>2015-09-09T10:44:54Z</time></trkpt><trkpt lat="51.7772707902" lon="-2.2364201769"><ele>203.94</ele><time>2015-09-09T10:45:11Z</time></trkpt><trkpt lat="51.7772423755" lon="-2.2362863179"><ele>203.94</ele><time>2015-09-09T10:45:29Z</time></trkpt><trkpt lat="51.7772880569" lon="-2.2361460887"><ele>203.46</ele><time>2015-09-09T10:45:50Z</time></trkpt><trkpt lat="51.7772630788" lon="-2.2360839788"><ele>202.98</ele><time>2015-09-09T10:46:08Z</time></trkpt><trkpt lat="51.7772311438" lon="-2.2359705716"><ele>202.98</ele><time>2015-09-09T10:46:27Z</time></trkpt><trkpt lat="51.7771751527" lon="-2.2355798911"><ele>203.94</ele><time>2015-09-09T10:46:45Z</time></trkpt><trkpt lat="51.7771711294" lon="-2.2352464590"><ele>205.38</ele><time>2015-09-09T10:47:05Z</time></trkpt><trkpt lat="51.7772175651" lon="-2.2349624801"><ele>206.34</ele><time>2015-09-09T10:47:25Z</time></trkpt><trkpt lat="51.7772266176" lon="-2.2346749809"><ele>207.78</ele><time>2015-09-09T10:47:43Z</time></trkpt><trkpt lat="51.7772812676" lon="-2.2346110269"><ele>206.82</ele><time>2015-09-09T10:48:04Z</time></trkpt><trkpt lat="51.7773075867" lon="-2.2345009726"><ele>207.30</ele><time>2015-09-09T10:48:22Z</time></trkpt><trkpt lat="51.7772945110" lon="-2.2342686262"><ele>207.30</ele><time>2015-09-09T10:48:44Z</time></trkpt><trkpt lat="51.7773308046" lon="-2.2340453323"><ele>208.74</ele><time>2015-09-09T10:49:04Z</time></trkpt><trkpt lat="51.7773648351" lon="-2.2338076215"><ele>208.26</ele><time>2015-09-09T10:49:21Z</time></trkpt><trkpt lat="51.7775147036" lon="-2.2335024364"><ele>206.82</ele><time>2015-09-09T10:49:43Z</time></trkpt><trkpt lat="51.7775175534" lon="-2.2332813218"><ele>206.82</ele><time>2015-09-09T10:49:59Z</time></trkpt><trkpt lat="51.7775194813" lon="-2.2331332974"><ele>206.82</ele><time>2015-09-09T10:50:17Z</time></trkpt><trkpt lat="51.7775444593" lon="-2.2331203055"><ele>207.30</ele><time>2015-09-09T10:50:44Z</time></trkpt><trkpt lat="51.7775508296" lon="-2.2330011986"><ele>208.26</ele><time>2015-09-09T10:51:04Z</time></trkpt><trkpt lat="51.7775292043" lon="-2.2329290304"><ele>208.26</ele><time>2015-09-09T10:51:29Z</time></trkpt><trkpt lat="51.7775426991" lon="-2.2328875400"><ele>208.26</ele><time>2015-09-09T10:51:53Z</time></trkpt><trkpt lat="51.7775535956" lon="-2.2328973468"><ele>209.22</ele><time>2015-09-09T10:52:13Z</time></trkpt><trkpt lat="51.7775673419" lon="-2.2328670043"><ele>209.22</ele><time>2015-09-09T10:52:33Z</time></trkpt><trkpt lat="51.7776133586" lon="-2.2328401823"><ele>210.19</ele><time>2015-09-09T10:52:54Z</time></trkpt><trkpt lat="51.7776333075" lon="-2.2328185569"><ele>210.19</ele><time>2015-09-09T10:53:18Z</time></trkpt><trkpt lat="51.7776691820" lon="-2.2327848617"><ele>211.15</ele><time>2015-09-09T10:53:43Z</time></trkpt><trkpt lat="51.7776627280" lon="-2.2327519208"><ele>211.15</ele><time>2015-09-09T10:54:05Z</time></trkpt><trkpt lat="51.7776508257" lon="-2.2326704487"><ele>211.63</ele><time>2015-09-09T10:54:24Z</time></trkpt><trkpt lat="51.7776987702" lon="-2.2322474141"><ele>211.63</ele><time>2015-09-09T10:54:43Z</time></trkpt><trkpt lat="51.7778163683" lon="-2.2319449950"><ele>211.63</ele><time>2015-09-09T10:54:59Z</time></trkpt><trkpt lat="51.7778830044" lon="-2.2317205276"><ele>210.67</ele><time>2015-09-09T10:55:18Z</time></trkpt><trkpt lat="51.7779327091" lon="-2.2315724194"><ele>211.15</ele><time>2015-09-09T10:55:35Z</time></trkpt><trkpt lat="51.7779804859" lon="-2.2315524705"><ele>211.15</ele><time>2015-09-09T10:55:54Z</time></trkpt><trkpt lat="51.7781026103" lon="-2.2312946431"><ele>211.15</ele><time>2015-09-09T10:56:16Z</time></trkpt><trkpt lat="51.7782171071" lon="-2.2309522424"><ele>211.15</ele><time>2015-09-09T10:56:36Z</time></trkpt><trkpt lat="51.7783715855" lon="-2.2307451256"><ele>210.67</ele><time>2015-09-09T10:56:57Z</time></trkpt><trkpt lat="51.7785303388" lon="-2.2305789962"><ele>210.67</ele><time>2015-09-09T10:57:17Z</time></trkpt><trkpt lat="51.7786284070" lon="-2.2304068319"><ele>210.19</ele><time>2015-09-09T10:57:37Z</time></trkpt><trkpt lat="51.7784278281" lon="-2.2304222547"><ele>212.11</ele><time>2015-09-09T10:57:55Z</time></trkpt><trkpt lat="51.7783129960" lon="-2.2305005416"><ele>214.51</ele><time>2015-09-09T10:58:12Z</time></trkpt><trkpt lat="51.7782294285" lon="-2.2305748053"><ele>214.99</ele><time>2015-09-09T10:58:28Z</time></trkpt><trkpt lat="51.7781190388" lon="-2.2306824289"><ele>218.36</ele><time>2015-09-09T10:58:46Z</time></trkpt><trkpt lat="51.7780211382" lon="-2.2307813354"><ele>218.84</ele><time>2015-09-09T10:58:54Z</time></trkpt><trkpt lat="51.7779117543" lon="-2.2309230734"><ele>219.80</ele><time>2015-09-09T10:59:12Z</time></trkpt><trkpt lat="51.7778331321" lon="-2.2309724428"><ele>223.16</ele><time>2015-09-09T10:59:30Z</time></trkpt><trkpt lat="51.7777675018" lon="-2.2310483828"><ele>224.12</ele><time>2015-09-09T10:59:42Z</time></trkpt><trkpt lat="51.7776920646" lon="-2.2312447708"><ele>225.09</ele><time>2015-09-09T10:59:57Z</time></trkpt><trkpt lat="51.7776552681" lon="-2.2312824894"><ele>226.05</ele><time>2015-09-09T11:00:16Z</time></trkpt><trkpt lat="51.7774911504" lon="-2.2314570844"><ele>230.37</ele><time>2015-09-09T11:00:34Z</time></trkpt><trkpt lat="51.7773386836" lon="-2.2315916140"><ele>232.78</ele><time>2015-09-09T11:00:53Z</time></trkpt><trkpt lat="51.7773224227" lon="-2.2315819748"><ele>232.78</ele><time>2015-09-09T11:01:14Z</time></trkpt><trkpt lat="51.7773225065" lon="-2.2315826453"><ele>234.70</ele><time>2015-09-09T11:01:17Z</time></trkpt><trkpt lat="51.7772951815" lon="-2.2317093797"><ele>237.10</ele><time>2015-09-09T11:01:40Z</time></trkpt><trkpt lat="51.7772611510" lon="-2.2316372953"><ele>237.58</ele><time>2015-09-09T11:01:47Z</time></trkpt><trkpt lat="51.7772782501" lon="-2.2316195257"><ele>238.06</ele><time>2015-09-09T11:02:06Z</time></trkpt><trkpt lat="51.7772744782" lon="-2.2316245548"><ele>241.43</ele><time>2015-09-09T11:02:13Z</time></trkpt><trkpt lat="51.7772126198" lon="-2.2316284105"><ele>244.31</ele><time>2015-09-09T11:02:26Z</time></trkpt><trkpt lat="51.7772039026" lon="-2.2316542268"><ele>245.27</ele><time>2015-09-09T11:02:35Z</time></trkpt><trkpt lat="51.7771295551" lon="-2.2316399775"><ele>247.20</ele><time>2015-09-09T11:02:43Z</time></trkpt><trkpt lat="51.7770481668" lon="-2.2316776123"><ele>246.23</ele><time>2015-09-09T11:03:08Z</time></trkpt><trkpt lat="51.7770434730" lon="-2.2317067813"><ele>246.23</ele><time>2015-09-09T11:03:40Z</time></trkpt><trkpt lat="51.7770448979" lon="-2.2317140736"><ele>246.23</ele><time>2015-09-09T11:04:01Z</time></trkpt><trkpt lat="51.7770475801" lon="-2.2317402251"><ele>246.72</ele><time>2015-09-09T11:04:29Z</time></trkpt><trkpt lat="51.7770041618" lon="-2.2318299115"><ele>246.72</ele><time>2015-09-09T11:04:47Z</time></trkpt><trkpt lat="51.7769350950" lon="-2.2320004832"><ele>246.72</ele><time>2015-09-09T11:05:03Z</time></trkpt><trkpt lat="51.7768801935" lon="-2.2321399581"><ele>246.72</ele><time>2015-09-09T11:05:19Z</time></trkpt><trkpt lat="51.7767740786" lon="-2.2324069217"><ele>247.20</ele><time>2015-09-09T11:05:35Z</time></trkpt><trkpt lat="51.7767304089" lon="-2.2325564548"><ele>250.56</ele><time>2015-09-09T11:05:51Z</time></trkpt><trkpt lat="51.7766952887" lon="-2.2326454706"><ele>251.04</ele><time>2015-09-09T11:06:06Z</time></trkpt><trkpt lat="51.7766054347" lon="-2.2327344026"><ele>252.96</ele><time>2015-09-09T11:06:21Z</time></trkpt><trkpt lat="51.7765022535" lon="-2.2328950837"><ele>254.89</ele><time>2015-09-09T11:06:40Z</time></trkpt><trkpt lat="51.7764947098" lon="-2.2331161983"><ele>254.89</ele><time>2015-09-09T11:06:59Z</time></trkpt><trkpt lat="51.7764762696" lon="-2.2332710121"><ele>255.37</ele><time>2015-09-09T11:07:14Z</time></trkpt><trkpt lat="51.7764414847" lon="-2.2333472874"><ele>256.81</ele><time>2015-09-09T11:07:21Z</time></trkpt><trkpt lat="51.7762641236" lon="-2.2335551586"><ele>257.77</ele><time>2015-09-09T11:07:40Z</time></trkpt><trkpt lat="51.7762545682" lon="-2.2336496226"><ele>257.77</ele><time>2015-09-09T11:07:56Z</time></trkpt><trkpt lat="51.7762722541" lon="-2.2337494511"><ele>258.73</ele><time>2015-09-09T11:08:11Z</time></trkpt><trkpt lat="51.7762428336" lon="-2.2340664547"><ele>258.73</ele><time>2015-09-09T11:08:28Z</time></trkpt><trkpt lat="51.7762233038" lon="-2.2343448177"><ele>258.73</ele><time>2015-09-09T11:08:46Z</time></trkpt><trkpt lat="51.7761672288" lon="-2.2346130386"><ele>258.73</ele><time>2015-09-09T11:09:01Z</time></trkpt><trkpt lat="51.7761322763" lon="-2.2347470652"><ele>258.73</ele><time>2015-09-09T11:09:17Z</time></trkpt><trkpt lat="51.7760779615" lon="-2.2348764818"><ele>258.73</ele><time>2015-09-09T11:09:34Z</time></trkpt><trkpt lat="51.7759845871" lon="-2.2350034676"><ele>258.73</ele><time>2015-09-09T11:09:49Z</time></trkpt><trkpt lat="51.7759062164" lon="-2.2352957446"><ele>259.21</ele><time>2015-09-09T11:10:07Z</time></trkpt><trkpt lat="51.7758830823" lon="-2.2356040310"><ele>258.73</ele><time>2015-09-09T11:10:25Z</time></trkpt><trkpt lat="51.7759324517" lon="-2.2357319389"><ele>258.25</ele><time>2015-09-09T11:10:43Z</time></trkpt><trkpt lat="51.7760093976" lon="-2.2359843180"><ele>257.77</ele><time>2015-09-09T11:11:03Z</time></trkpt><trkpt lat="51.7760432605" lon="-2.2362610046"><ele>257.77</ele><time>2015-09-09T11:11:20Z</time></trkpt><trkpt lat="51.7760705855" lon="-2.2365492582"><ele>258.25</ele><time>2015-09-09T11:11:38Z</time></trkpt><trkpt lat="51.7760568392" lon="-2.2367732227"><ele>258.25</ele><time>2015-09-09T11:11:56Z</time></trkpt><trkpt lat="51.7760730162" lon="-2.2370466404"><ele>258.25</ele><time>2015-09-09T11:12:15Z</time></trkpt><trkpt lat="51.7760651372" lon="-2.2373543400"><ele>256.81</ele><time>2015-09-09T11:12:33Z</time></trkpt><trkpt lat="51.7761103157" lon="-2.2375982534"><ele>256.33</ele><time>2015-09-09T11:12:51Z</time></trkpt><trkpt lat="51.7761532310" lon="-2.2378543206"><ele>255.37</ele><time>2015-09-09T11:13:08Z</time></trkpt><trkpt lat="51.7761508003" lon="-2.2379625309"><ele>256.33</ele><time>2015-09-09T11:13:23Z</time></trkpt><trkpt lat="51.7761492915" lon="-2.2382203583"><ele>256.33</ele><time>2015-09-09T11:13:40Z</time></trkpt><trkpt lat="51.7761994153" lon="-2.2384274751"><ele>256.33</ele><time>2015-09-09T11:13:57Z</time></trkpt><trkpt lat="51.7762439232" lon="-2.2385779303"><ele>256.81</ele><time>2015-09-09T11:14:14Z</time></trkpt><trkpt lat="51.7762527242" lon="-2.2389100213"><ele>255.37</ele><time>2015-09-09T11:14:30Z</time></trkpt><trkpt lat="51.7763050273" lon="-2.2391010448"><ele>255.85</ele><time>2015-09-09T11:14:45Z</time></trkpt><trkpt lat="51.7761865910" lon="-2.2390731331"><ele>255.85</ele><time>2015-09-09T11:15:00Z</time></trkpt><trkpt lat="51.7761365511" lon="-2.2390639130"><ele>256.33</ele><time>2015-09-09T11:15:14Z</time></trkpt><trkpt lat="51.7760594375" lon="-2.2392891347"><ele>255.85</ele><time>2015-09-09T11:15:30Z</time></trkpt><trkpt lat="51.7760507204" lon="-2.2394393384"><ele>255.37</ele><time>2015-09-09T11:15:41Z</time></trkpt><trkpt lat="51.7760188691" lon="-2.2395064775"><ele>255.85</ele><time>2015-09-09T11:15:55Z</time></trkpt><trkpt lat="51.7760623712" lon="-2.2396660689"><ele>254.89</ele><time>2015-09-09T11:16:07Z</time></trkpt><trkpt lat="51.7760492954" lon="-2.2397404164"><ele>254.89</ele><time>2015-09-09T11:16:12Z</time></trkpt><trkpt lat="51.7760317773" lon="-2.2400466911"><ele>254.41</ele><time>2015-09-09T11:16:29Z</time></trkpt><trkpt lat="51.7760169413" lon="-2.2403113078"><ele>253.44</ele><time>2015-09-09T11:16:44Z</time></trkpt><trkpt lat="51.7760137562" lon="-2.2403634433"><ele>253.44</ele><time>2015-09-09T11:16:47Z</time></trkpt><trkpt lat="51.7759867664" lon="-2.2406584863"><ele>254.41</ele><time>2015-09-09T11:17:05Z</time></trkpt><trkpt lat="51.7759828269" lon="-2.2406961210"><ele>253.93</ele><time>2015-09-09T11:17:08Z</time></trkpt><trkpt lat="51.7759895325" lon="-2.2407732345"><ele>253.44</ele><time>2015-09-09T11:17:21Z</time></trkpt><trkpt lat="51.7759627942" lon="-2.2409243602"><ele>253.44</ele><time>2015-09-09T11:17:35Z</time></trkpt><trkpt lat="51.7759446893" lon="-2.2410011385"><ele>253.44</ele><time>2015-09-09T11:17:54Z</time></trkpt><trkpt lat="51.7759464495" lon="-2.2411757335"><ele>252.96</ele><time>2015-09-09T11:18:06Z</time></trkpt><trkpt lat="51.7759355530" lon="-2.2415026277"><ele>252.96</ele><time>2015-09-09T11:18:25Z</time></trkpt><trkpt lat="51.7759042047" lon="-2.2417369857"><ele>252.48</ele><time>2015-09-09T11:18:40Z</time></trkpt><trkpt lat="51.7759078927" lon="-2.2419949807"><ele>252.48</ele><time>2015-09-09T11:18:56Z</time></trkpt><trkpt lat="51.7758736107" lon="-2.2422375530"><ele>252.48</ele><time>2015-09-09T11:19:12Z</time></trkpt><trkpt lat="51.7758528236" lon="-2.2425258905"><ele>252.48</ele><time>2015-09-09T11:19:30Z</time></trkpt><trkpt lat="51.7758477107" lon="-2.2427439038"><ele>252.00</ele><time>2015-09-09T11:19:42Z</time></trkpt><trkpt lat="51.7758855131" lon="-2.2429614980"><ele>250.56</ele><time>2015-09-09T11:19:58Z</time></trkpt><trkpt lat="51.7758354731" lon="-2.2433173098"><ele>248.16</ele><time>2015-09-09T11:20:16Z</time></trkpt><trkpt lat="51.7758630496" lon="-2.2435102612"><ele>246.23</ele><time>2015-09-09T11:20:35Z</time></trkpt><trkpt lat="51.7758479621" lon="-2.2437402606"><ele>244.79</ele><time>2015-09-09T11:20:51Z</time></trkpt><trkpt lat="51.7758214753" lon="-2.2441153508"><ele>244.31</ele><time>2015-09-09T11:21:06Z</time></trkpt><trkpt lat="51.7758029513" lon="-2.2444330249"><ele>243.83</ele><time>2015-09-09T11:21:21Z</time></trkpt><trkpt lat="51.7758262530" lon="-2.2447120585"><ele>243.35</ele><time>2015-09-09T11:21:38Z</time></trkpt><trkpt lat="51.7757940665" lon="-2.2449144814"><ele>244.31</ele><time>2015-09-09T11:21:56Z</time></trkpt><trkpt lat="51.7757565994" lon="-2.2450861428"><ele>243.35</ele><time>2015-09-09T11:22:14Z</time></trkpt><trkpt lat="51.7757386621" lon="-2.2453591414"><ele>244.79</ele><time>2015-09-09T11:22:31Z</time></trkpt><trkpt lat="51.7758091539" lon="-2.2454537731"><ele>244.31</ele><time>2015-09-09T11:22:46Z</time></trkpt><trkpt lat="51.7758128420" lon="-2.2454663459"><ele>244.31</ele><time>2015-09-09T11:23:12Z</time></trkpt><trkpt lat="51.7758101597" lon="-2.2454781644"><ele>244.31</ele><time>2015-09-09T11:23:33Z</time></trkpt><trkpt lat="51.7757831700" lon="-2.2455339041"><ele>244.31</ele><time>2015-09-09T11:23:45Z</time></trkpt><trkpt lat="51.7757788114" lon="-2.2455240134"><ele>243.83</ele><time>2015-09-09T11:23:54Z</time></trkpt></trkseg></trk></gpx>